Time;durP1;ratioP1;P1;durP2;ratioP2;P2;SDS_P1;SDS_P2;PMS_P1;PMS_P2;Temp;Humidity;BMP_temperature;BMP_pressure;BME280_temperature;BME280_humidity;BME280_pressure;Samples;Min_cycle;Max_cycle;Signal;HPM_P1;HPM_P2
2024/03/03 00:02:16;;;;;;;30.92;17.92;;;;;;;8.52;72.24;95111.47;4939220;29;20568;-77
2024/03/03 00:04:44;;;;;;;26.85;18.02;;;;;;;8.44;72.22;95109.91;4938808;29;20401;-77
2024/03/03 00:07:12;;;;;;;30.55;18.02;;;;;;;8.39;72.00;95114.09;4938684;29;20044;-77
2024/03/03 00:09:40;;;;;;;30.25;19.20;;;;;;;8.32;72.15;95123.72;4939183;29;20052;-77
2024/03/03 00:12:08;;;;;;;29.38;19.20;;;;;;;8.26;72.31;95114.91;4939375;29;20063;-77
2024/03/03 00:14:35;;;;;;;30.80;18.70;;;;;;;8.21;72.45;95115.53;4939280;29;20138;-77
2024/03/03 00:17:04;;;;;;;33.45;19.50;;;;;;;8.19;72.44;95112.34;4939159;29;20051;-77
2024/03/03 00:19:31;;;;;;;30.00;19.25;;;;;;;8.18;72.44;95112.56;4939413;29;20051;-77
2024/03/03 00:22:00;;;;;;;31.08;18.45;;;;;;;8.18;72.78;95110.75;4938620;29;20134;-77
2024/03/03 00:24:28;;;;;;;30.80;20.33;;;;;;;8.20;72.56;95110.56;4939075;29;20058;-77
2024/03/03 00:26:55;;;;;;;32.03;18.73;;;;;;;8.21;72.63;95110.31;4938235;29;20487;-77
2024/03/03 00:29:23;;;;;;;31.98;20.52;;;;;;;8.22;72.34;95111.94;4938180;29;20048;-77
2024/03/03 00:31:50;;;;;;;29.88;19.55;;;;;;;8.20;72.37;95105.34;4937786;29;20059;-77
2024/03/03 00:34:18;;;;;;;28.75;18.60;;;;;;;8.18;72.44;95102.97;4937824;29;20134;-77
2024/03/03 00:36:45;;;;;;;36.60;19.35;;;;;;;8.19;72.30;95099.34;4937630;29;20054;-77
2024/03/03 00:39:14;;;;;;;26.60;17.38;;;;;;;8.20;72.87;95110.56;4937602;29;20103;-76
2024/03/03 00:41:42;;;;;;;29.35;18.38;;;;;;;8.22;72.55;95111.94;4937609;29;20048;-77
2024/03/03 00:44:09;;;;;;;24.98;17.67;;;;;;;8.19;72.86;95117.53;4937531;29;20051;-76
2024/03/03 00:46:37;;;;;;;28.52;18.30;;;;;;;8.16;72.63;95122.34;4937539;29;20110;-77
2024/03/03 00:49:04;;;;;;;30.27;19.70;;;;;;;8.12;72.59;95100.38;4937662;29;20135;-77
2024/03/03 00:51:32;;;;;;;28.13;17.27;;;;;;;8.12;72.42;95097.78;4937373;29;20054;-77
2024/03/03 00:53:59;;;;;;;31.17;19.73;;;;;;;8.08;72.46;95094.78;4937434;29;20127;-77
2024/03/03 00:56:28;;;;;;;31.73;18.33;;;;;;;7.99;72.41;95090.81;4937309;29;20051;-77
2024/03/03 00:58:56;;;;;;;29.10;18.85;;;;;;;7.89;72.66;95085.22;4937252;29;20083;-77
2024/03/03 01:01:23;;;;;;;31.35;18.50;;;;;;;7.82;72.76;95069.66;4937422;29;20086;-77
2024/03/03 01:03:51;;;;;;;29.13;18.30;;;;;;;7.77;73.11;95069.47;4943764;23;20499;-77
2024/03/03 01:06:19;;;;;;;28.52;17.95;;;;;;;7.73;73.02;95066.47;4920654;29;20476;-79
2024/03/03 01:08:46;;;;;;;26.85;17.08;;;;;;;7.77;73.36;95066.88;4921824;29;20140;-79
2024/03/03 01:11:14;;;;;;;28.45;17.83;;;;;;;7.82;73.41;95070.44;4921031;29;20084;-77
2024/03/03 01:13:43;;;;;;;27.33;16.42;;;;;;;7.94;73.40;95068.03;4920424;29;20432;-78
2024/03/03 01:16:10;;;;;;;28.85;17.02;;;;;;;8.00;73.09;95067.25;4920800;29;20116;-78
2024/03/03 01:18:38;;;;;;;30.83;18.42;;;;;;;8.01;72.57;95073.22;4920455;29;20048;-78
2024/03/03 01:21:06;;;;;;;33.88;19.27;;;;;;;7.98;72.55;95066.66;4920856;29;20052;-78
2024/03/03 01:23:34;;;;;;;30.25;18.38;;;;;;;7.95;72.46;95066.25;4920098;29;20056;-78
2024/03/03 01:26:02;;;;;;;29.20;17.92;;;;;;;7.91;72.58;95065.84;4920333;29;20426;-77
2024/03/03 01:28:30;;;;;;;31.40;19.27;;;;;;;7.90;72.61;95060.88;4920994;29;20048;-78
2024/03/03 01:30:58;;;;;;;30.80;18.52;;;;;;;7.86;72.44;95054.47;4920403;29;20092;-79
2024/03/03 01:33:26;;;;;;;32.08;19.17;;;;;;;7.80;72.41;95043.88;4920462;29;20055;-78
2024/03/03 01:35:54;;;;;;;32.38;19.73;;;;;;;7.74;72.86;95042.13;4920849;29;20052;-78
2024/03/03 01:38:21;;;;;;;31.98;18.85;;;;;;;7.70;72.70;95040.94;4920642;29;20072;-79
2024/03/03 01:40:52;;;;;;;32.88;18.33;;;;;;;7.65;72.85;95043.31;4920347;29;20091;-78
2024/03/03 01:43:20;;;;;;;29.88;18.70;;;;;;;7.61;72.94;95034.34;4920125;29;20530;-77
2024/03/03 01:45:47;;;;;;;30.77;18.50;;;;;;;7.59;72.89;95031.94;4920044;29;20078;-78
2024/03/03 01:48:17;;;;;;;29.58;19.45;;;;;;;7.58;73.18;95022.56;4920160;29;20063;-78
2024/03/03 01:50:44;;;;;;;30.48;19.33;;;;;;;7.57;73.25;95023.56;4920537;29;20111;-78
2024/03/03 01:53:13;;;;;;;31.90;19.15;;;;;;;7.53;73.06;95027.56;4920184;29;20059;-79
2024/03/03 01:55:42;;;;;;;30.60;19.00;;;;;;;7.56;73.19;95031.53;4920618;29;20083;-77
2024/03/03 01:58:11;;;;;;;33.78;20.58;;;;;;;7.56;73.22;95032.34;4920664;29;20060;-79
2024/03/03 02:00:39;;;;;;;32.60;18.92;;;;;;;7.55;73.56;95024.78;4921847;29;20425;-77
2024/03/03 02:03:09;;;;;;;31.50;18.67;;;;;;;7.54;73.85;95025.75;4919363;29;20501;-77
2024/03/03 02:05:39;;;;;;;34.65;19.55;;;;;;;7.56;73.67;95024.56;4920032;29;20083;-78
2024/03/03 02:08:07;;;;;;;34.53;19.63;;;;;;;7.57;73.37;95023.56;4919641;29;20052;-79
2024/03/03 02:10:35;;;;;;;31.48;19.17;;;;;;;7.59;73.57;95015.59;4919374;29;20052;-78
2024/03/03 02:13:03;;;;;;;38.45;20.48;;;;;;;7.61;73.49;95019.56;4921300;29;20076;-77
2024/03/03 02:15:31;;;;;;;31.80;18.90;;;;;;;7.62;73.27;95022.97;4918276;29;20056;-78
2024/03/03 02:17:58;;;;;;;33.95;20.33;;;;;;;7.59;73.21;95018.19;4919830;29;20044;-82
2024/03/03 02:20:27;;;;;;;35.33;20.10;;;;;;;7.55;73.41;95017.00;4919505;29;20059;-77
2024/03/03 02:22:57;;;;;;;31.73;19.38;;;;;;;7.50;73.28;95011.59;4919810;29;20139;-79
2024/03/03 02:25:26;;;;;;;32.70;19.63;;;;;;;7.44;73.63;95018.41;4919522;29;20060;-78
2024/03/03 02:27:54;;;;;;;32.75;19.25;;;;;;;7.41;73.74;95009.22;4923084;29;20107;-81
2024/03/03 02:30:21;;;;;;;31.65;19.77;;;;;;;7.39;73.84;95007.81;4925357;29;20051;-82
2024/03/03 02:32:50;;;;;;;31.42;19.27;;;;;;;7.41;73.91;95011.00;4926704;29;20086;-81
2024/03/03 02:35:17;;;;;;;30.65;19.77;;;;;;;7.43;74.01;95012.41;4924686;29;20052;-80
2024/03/03 02:37:46;;;;;;;37.28;21.13;;;;;;;7.45;73.72;95017.38;4924620;29;20076;-82
2024/03/03 02:40:15;;;;;;;32.20;20.60;;;;;;;7.45;73.83;95011.41;4925920;29;20056;-79
2024/03/03 02:42:43;;;;;;;34.60;21.77;;;;;;;7.39;73.94;95016.41;4925020;29;20052;-80
2024/03/03 02:45:11;;;;;;;34.72;20.13;;;;;;;7.34;73.96;95021.38;4924997;29;20064;-81
2024/03/03 02:47:39;;;;;;;35.53;22.48;;;;;;;7.34;74.39;95016.19;4925169;29;20517;-81
2024/03/03 02:50:08;;;;;;;33.10;21.02;;;;;;;7.31;74.42;95021.78;4924564;29;20063;-80
2024/03/03 02:52:36;;;;;;;35.90;21.27;;;;;;;7.31;74.63;95024.38;4924042;29;20052;-81
2024/03/03 02:55:04;;;;;;;33.78;21.00;;;;;;;7.27;74.63;95025.78;4924046;29;20045;-81
2024/03/03 02:57:33;;;;;;;34.58;21.65;;;;;;;7.21;74.73;95022.19;4924151;29;20060;-80
2024/03/03 03:00:01;;;;;;;35.45;20.52;;;;;;;7.16;75.02;95027.16;4923847;29;20064;-81
2024/03/03 03:02:28;;;;;;;38.67;23.33;;;;;;;7.10;75.07;95027.94;4923804;29;20413;-78
2024/03/03 03:04:57;;;;;;;39.05;23.55;;;;;;;7.04;75.63;95025.34;4923303;29;20080;-80
2024/03/03 03:07:25;;;;;;;37.88;22.52;;;;;;;7.02;75.65;95010.03;4923137;29;20094;-80
2024/03/03 03:09:52;;;;;;;38.35;22.33;;;;;;;6.96;75.66;95014.19;4923541;29;20055;-79
2024/03/03 03:12:20;;;;;;;36.03;21.60;;;;;;;6.89;75.92;95010.78;4922737;29;20516;-78
2024/03/03 03:14:49;;;;;;;35.65;22.85;;;;;;;6.85;76.18;95007.00;4922761;29;20513;-80
2024/03/03 03:17:16;;;;;;;37.47;22.20;;;;;;;6.82;76.41;95009.97;4922259;29;20111;-80
2024/03/03 03:19:45;;;;;;;36.35;22.70;;;;;;;6.85;76.52;95012.19;4922664;29;20079;-81
2024/03/03 03:22:13;;;;;;;34.95;21.33;;;;;;;6.87;76.17;95012.00;4921788;29;20056;-78
2024/03/03 03:24:41;;;;;;;37.20;22.23;;;;;;;6.88;76.37;95011.78;4922073;29;20056;-78
2024/03/03 03:27:08;;;;;;;37.80;21.70;;;;;;;6.87;76.29;95015.38;4923927;29;20461;-80
2024/03/03 03:29:36;;;;;;;35.15;23.67;;;;;;;6.85;76.35;95012.19;4926075;29;20100;-77
2024/03/03 03:32:06;;;;;;;34.67;21.90;;;;;;;6.79;76.88;95015.56;4925691;29;20051;-79
2024/03/03 03:34:34;;;;;;;38.88;21.98;;;;;;;6.72;76.55;95012.97;4925530;29;20047;-80
2024/03/03 03:37:01;;;;;;;34.08;21.48;;;;;;;6.68;76.79;95011.75;4925085;29;20052;-77
2024/03/03 03:39:29;;;;;;;37.15;22.23;;;;;;;6.67;76.85;95019.72;4925514;29;20103;-79
2024/03/03 03:41:57;;;;;;;33.80;21.85;;;;;;;6.66;76.90;95015.53;4925268;29;20103;-79
2024/03/03 03:44:25;;;;;;;38.83;22.63;;;;;;;6.64;77.21;95020.09;4925652;29;20063;-81
2024/03/03 03:46:52;;;;;;;35.03;22.20;;;;;;;6.65;77.04;95022.53;4924841;29;20059;-77
2024/03/03 03:49:22;;;;;;;33.92;21.35;;;;;;;6.64;77.20;95026.09;4924782;29;20101;-79
2024/03/03 03:51:49;;;;;;;34.58;21.17;;;;;;;6.63;77.16;95028.88;4923970;29;20095;-80
2024/03/03 03:54:17;;;;;;;33.22;20.42;;;;;;;6.59;77.29;95031.06;4924330;29;20087;-79
2024/03/03 03:56:45;;;;;;;31.13;21.67;;;;;;;6.53;77.26;95029.25;4924144;29;20100;-78
2024/03/03 03:59:13;;;;;;;36.10;21.05;;;;;;;6.46;77.33;95033.63;4923621;29;20128;-80
2024/03/03 04:01:40;;;;;;;35.13;20.63;;;;;;;6.39;77.79;95028.41;4923562;29;20048;-79
2024/03/03 04:04:10;;;;;;;32.88;20.80;;;;;;;6.36;77.79;95039.16;4922882;29;20062;-79
2024/03/03 04:06:38;;;;;;;35.45;21.45;;;;;;;6.32;78.04;95027.56;4923638;29;20052;-78
2024/03/03 04:09:06;;;;;;;31.05;20.20;;;;;;;6.25;78.16;95021.56;4923110;29;20052;-81
2024/03/03 04:11:34;;;;;;;34.35;22.70;;;;;;;6.18;78.34;95027.53;4922940;29;20081;-79
2024/03/03 04:14:01;;;;;;;31.42;19.23;;;;;;;6.11;78.89;95024.13;4922906;29;20048;-80
2024/03/03 04:16:29;;;;;;;29.27;19.65;;;;;;;6.09;78.65;95022.72;4923257;29;20078;-78
2024/03/03 04:18:57;;;;;;;33.25;21.38;;;;;;;6.06;78.60;95023.91;4923285;29;20144;-79
2024/03/03 04:21:24;;;;;;;31.27;20.17;;;;;;;5.97;78.99;95019.88;4922959;29;20055;-80
2024/03/03 04:23:53;;;;;;;31.13;20.05;;;;;;;5.95;79.63;95024.44;4922515;29;20131;-79
2024/03/03 04:26:21;;;;;;;35.25;20.67;;;;;;;5.95;79.43;95034.78;4922233;29;20444;-78
2024/03/03 04:28:48;;;;;;;30.10;19.98;;;;;;;5.89;79.46;95022.59;4921891;29;20095;-76
2024/03/03 04:31:16;;;;;;;32.78;19.60;;;;;;;5.87;79.62;95016.81;4922224;29;20083;-79
2024/03/03 04:33:44;;;;;;;33.65;21.60;;;;;;;5.85;79.49;95018.78;4921422;29;20059;-80
2024/03/03 04:36:12;;;;;;;31.45;21.50;;;;;;;5.83;79.89;95018.97;4922014;29;20060;-77
2024/03/03 04:38:40;;;;;;;35.85;22.20;;;;;;;5.82;79.58;95016.59;4921430;29;20052;-77
2024/03/03 04:41:15;;;;;;;34.08;22.33;;;;;;;5.80;80.39;95014.19;4921663;29;20052;-79
2024/03/03 04:43:43;;;;;;;32.00;20.08;;;;;;;5.81;79.81;95009.78;4921071;29;20131;-78
2024/03/03 04:46:10;;;;;;;34.30;21.83;;;;;;;5.79;79.47;95007.38;4921477;29;20063;-78
2024/03/03 04:48:38;;;;;;;27.73;19.02;;;;;;;5.78;79.95;95001.44;4920901;29;20044;-77
2024/03/03 04:51:06;;;;;;;32.13;19.98;;;;;;;5.83;79.98;95013.00;4921091;29;20088;-80
2024/03/03 04:53:34;;;;;;;33.95;19.98;;;;;;;5.83;79.53;95021.56;4920535;29;20052;-80
2024/03/03 04:56:01;;;;;;;32.40;20.90;;;;;;;5.83;79.42;95015.59;4920749;29;20052;-78
2024/03/03 04:58:30;;;;;;;32.72;21.17;;;;;;;5.77;79.47;95010.19;4920659;29;20048;-78
2024/03/03 05:00:58;;;;;;;29.55;20.05;;;;;;;5.72;79.55;95015.13;4921397;29;20103;-77
2024/03/03 05:03:26;;;;;;;32.65;21.02;;;;;;;5.63;79.37;95005.91;4920141;29;20124;-77
2024/03/03 05:05:54;;;;;;;34.20;21.73;;;;;;;5.56;79.62;95018.00;4921013;29;20587;-78
2024/03/03 05:08:22;;;;;;;31.85;21.20;;;;;;;5.50;80.27;95021.34;4920712;29;20082;-77
2024/03/03 05:10:50;;;;;;;30.23;19.52;;;;;;;5.50;80.05;95022.16;4920956;29;20124;-78
2024/03/03 05:13:18;;;;;;;29.40;19.00;;;;;;;5.50;80.34;95023.94;4920513;29;20051;-77
2024/03/03 05:15:47;;;;;;;29.50;19.40;;;;;;;5.49;80.46;95019.78;4920524;29;20052;-78
2024/03/03 05:18:15;;;;;;;27.90;19.23;;;;;;;5.51;80.05;95020.34;4920402;29;20091;-80
2024/03/03 05:20:43;;;;;;;29.95;19.85;;;;;;;5.52;80.23;95021.97;4920488;29;20119;-78
2024/03/03 05:23:10;;;;;;;29.67;19.00;;;;;;;5.52;79.91;95017.59;4920579;29;20052;-80
2024/03/03 05:25:38;;;;;;;28.08;18.60;;;;;;;5.52;80.10;95029.72;4920767;29;20565;-80
2024/03/03 05:28:06;;;;;;;30.52;19.98;;;;;;;5.56;80.11;95033.53;4919941;29;20052;-77
2024/03/03 05:30:36;;;;;;;31.15;20.10;;;;;;;5.51;79.76;95031.50;4919990;29;20051;-77
2024/03/03 05:33:06;;;;;;;29.73;19.95;;;;;;;5.45;79.96;95032.25;4920087;29;20056;-76
2024/03/03 05:35:34;;;;;;;28.40;18.40;;;;;;;5.38;80.09;95026.25;4920413;29;20058;-77
2024/03/03 05:38:02;;;;;;;32.92;21.17;;;;;;;5.29;80.23;95028.19;4920323;29;20084;-78
2024/03/03 05:40:29;;;;;;;27.83;18.13;;;;;;;5.26;80.52;95020.78;4920443;29;20112;-78
2024/03/03 05:42:57;;;;;;;27.23;18.70;;;;;;;5.25;80.22;95021.78;4920411;29;20509;-77
2024/03/03 05:45:25;;;;;;;26.38;17.63;;;;;;;5.25;80.75;95024.38;4919556;29;20406;-77
2024/03/03 05:47:54;;;;;;;30.45;18.50;;;;;;;5.28;80.65;95031.72;4920470;29;20091;-78
2024/03/03 05:50:23;;;;;;;30.95;20.05;;;;;;;5.28;80.56;95028.34;4920585;29;20052;-78
2024/03/03 05:52:51;;;;;;;30.15;18.63;;;;;;;5.27;80.74;95030.16;4920564;29;20067;-78
2024/03/03 05:55:18;;;;;;;30.05;19.20;;;;;;;5.28;80.61;95029.16;4920494;29;20100;-78
2024/03/03 05:57:47;;;;;;;28.73;19.33;;;;;;;5.32;80.92;95038.13;4920757;29;20491;-77
2024/03/03 06:00:15;;;;;;;30.00;19.75;;;;;;;5.35;80.55;95031.78;4920448;29;20076;-80
2024/03/03 06:02:43;;;;;;;28.92;19.20;;;;;;;5.32;80.43;95027.78;4920108;29;20072;-79
2024/03/03 06:05:11;;;;;;;28.05;19.05;;;;;;;5.24;80.04;95030.50;4920287;29;20150;-78
2024/03/03 06:07:40;;;;;;;28.83;19.30;;;;;;;5.20;80.64;95029.28;4920087;29;20484;-79
2024/03/03 06:10:08;;;;;;;29.38;18.88;;;;;;;5.21;80.87;95036.06;4920356;29;20138;-79
2024/03/03 06:12:36;;;;;;;30.02;20.92;;;;;;;5.23;80.70;95026.34;4919802;29;20052;-78
2024/03/03 06:15:05;;;;;;;28.83;19.42;;;;;;;5.18;80.83;95033.81;4920127;29;20048;-77
2024/03/03 06:17:33;;;;;;;28.30;18.65;;;;;;;5.14;81.05;95042.97;4922889;29;20104;-80
2024/03/03 06:20:00;;;;;;;28.23;18.90;;;;;;;5.12;80.84;95044.94;4922297;29;20151;-78
2024/03/03 06:22:28;;;;;;;27.63;16.85;;;;;;;5.12;80.93;95042.34;4919898;29;20059;-78
2024/03/03 06:24:57;;;;;;;28.65;18.65;;;;;;;5.16;81.14;95043.59;4919489;29;20143;-77
2024/03/03 06:27:25;;;;;;;28.55;17.67;;;;;;;5.18;80.91;95041.59;4920155;29;20048;-77
2024/03/03 06:29:53;;;;;;;28.33;18.98;;;;;;;5.19;80.74;95045.00;4919423;29;20055;-79
2024/03/03 06:32:20;;;;;;;26.80;18.35;;;;;;;5.16;80.59;95041.00;4919456;29;20104;-78
2024/03/03 06:34:50;;;;;;;26.88;18.23;;;;;;;5.13;80.83;95039.56;4919006;29;20058;-78
2024/03/03 06:37:18;;;;;;;26.20;18.00;;;;;;;5.15;81.16;95041.97;4919546;29;20405;-78
2024/03/03 06:39:48;;;;;;;26.50;17.85;;;;;;;5.18;80.85;95043.38;4919290;29;20056;-78
2024/03/03 06:42:17;;;;;;;25.45;16.67;;;;;;;5.21;81.10;95040.44;4919462;29;20108;-78
2024/03/03 06:44:44;;;;;;;24.73;17.45;;;;;;;5.21;80.74;95046.41;4920513;29;20139;-78
2024/03/03 06:47:12;;;;;;;27.48;17.23;;;;;;;5.22;80.64;95053.16;4919728;29;20456;-77
2024/03/03 06:49:40;;;;;;;24.67;16.80;;;;;;;5.25;80.92;95047.63;4919205;29;20044;-79
2024/03/03 06:52:07;;;;;;;24.10;16.45;;;;;;;5.33;80.74;95050.06;4919051;29;20135;-81
2024/03/03 06:54:35;;;;;;;23.83;16.98;;;;;;;5.39;80.24;95042.56;4919629;29;20048;-79
2024/03/03 06:57:03;;;;;;;23.40;16.92;;;;;;;5.40;80.11;95044.16;4924895;29;20052;-85
2024/03/03 06:59:32;;;;;;;23.25;16.13;;;;;;;5.42;80.13;95047.34;4924403;29;20052;-82
2024/03/03 07:02:00;;;;;;;23.92;16.13;;;;;;;5.48;79.95;95044.81;4923758;29;20052;-80
2024/03/03 07:04:28;;;;;;;24.90;16.73;;;;;;;5.57;79.91;95035.13;4936445;23;20064;-78
2024/03/03 07:06:56;;;;;;;27.40;18.35;;;;;;;5.65;79.72;95039.38;4916131;29;20056;-78
2024/03/03 07:09:24;;;;;;;25.80;17.13;;;;;;;5.74;79.54;95036.44;4916193;29;20497;-78
2024/03/03 07:11:52;;;;;;;25.50;17.98;;;;;;;5.82;79.03;95037.28;4916441;29;20056;-78
2024/03/03 07:14:20;;;;;;;25.15;16.35;;;;;;;5.90;79.10;95042.28;4916303;29;20146;-78
2024/03/03 07:16:50;;;;;;;22.25;16.05;;;;;;;5.98;78.69;95044.75;4916212;29;20056;-77
2024/03/03 07:19:18;;;;;;;23.98;15.95;;;;;;;6.05;78.64;95043.00;4916216;29;20696;-78
2024/03/03 07:21:46;;;;;;;24.17;16.90;;;;;;;6.16;78.16;95034.69;4916894;29;20473;-78
2024/03/03 07:24:14;;;;;;;24.00;16.40;;;;;;;6.24;77.85;95030.34;4916778;29;20131;-78
2024/03/03 07:26:42;;;;;;;22.38;15.02;;;;;;;6.30;77.51;95027.78;4916360;29;20520;-78
2024/03/03 07:29:10;;;;;;;23.30;16.05;;;;;;;6.41;77.51;95039.38;4916414;29;20119;-78
2024/03/03 07:31:38;;;;;;;22.23;15.38;;;;;;;6.48;76.96;95039.41;4915937;29;20112;-78
2024/03/03 07:34:07;;;;;;;21.77;15.45;;;;;;;6.56;76.76;95040.03;4915951;29;20151;-78
2024/03/03 07:36:34;;;;;;;21.25;14.90;;;;;;;6.64;76.38;95046.81;4915822;29;20052;-78
2024/03/03 07:39:04;;;;;;;21.42;14.93;;;;;;;6.72;75.77;95040.66;4916037;29;20062;-78
2024/03/03 07:41:32;;;;;;;22.00;15.80;;;;;;;6.83;75.83;95050.47;4916020;29;20048;-78
2024/03/03 07:44:00;;;;;;;20.48;14.82;;;;;;;6.93;75.56;95047.47;4915528;29;20120;-78
2024/03/03 07:46:29;;;;;;;20.70;15.18;;;;;;;7.04;75.32;95054.69;4916709;29;20052;-78
2024/03/03 07:48:57;;;;;;;19.52;14.68;;;;;;;7.12;74.64;95058.88;4915883;29;20496;-78
2024/03/03 07:51:26;;;;;;;19.23;14.02;;;;;;;7.20;74.43;95051.72;4915860;29;20084;-78
2024/03/03 07:53:54;;;;;;;18.00;13.05;;;;;;;7.33;74.11;95056.09;4915536;29;20059;-78
2024/03/03 07:56:21;;;;;;;17.85;13.25;;;;;;;7.49;74.17;95059.31;4915595;29;20056;-77
2024/03/03 07:58:49;;;;;;;18.83;13.52;;;;;;;7.70;73.77;95043.53;4915923;29;20552;-78
2024/03/03 08:01:16;;;;;;;19.65;14.30;;;;;;;7.88;72.92;95055.88;4915817;29;20139;-78
2024/03/03 08:03:44;;;;;;;20.70;13.88;;;;;;;8.09;72.74;95059.22;4915390;29;20143;-78
2024/03/03 08:06:12;;;;;;;21.20;14.18;;;;;;;8.30;71.71;95064.16;4915691;29;20052;-78
2024/03/03 08:08:42;;;;;;;22.25;14.23;;;;;;;8.42;71.00;95069.56;4915543;29;20056;-78
2024/03/03 08:11:10;;;;;;;20.73;13.90;;;;;;;8.56;70.67;95058.09;4915238;29;20056;-78
2024/03/03 08:13:38;;;;;;;19.38;14.63;;;;;;;8.73;70.04;95055.03;4916471;29;20286;-78
2024/03/03 08:16:06;;;;;;;17.10;13.15;;;;;;;8.88;69.51;95055.53;4925782;29;20052;-79
2024/03/03 08:18:34;;;;;;;19.90;14.05;;;;;;;9.06;68.89;95058.22;4932997;29;20540;-79
2024/03/03 08:21:02;;;;;;;17.85;13.32;;;;;;;9.27;67.99;95056.28;4936753;29;20076;-79
2024/03/03 08:23:30;;;;;;;18.52;13.55;;;;;;;9.46;67.55;95047.53;4926257;29;20581;-79
2024/03/03 08:25:59;;;;;;;18.63;13.43;;;;;;;9.65;66.68;95048.38;4920071;29;20139;-78
2024/03/03 08:28:27;;;;;;;19.25;13.50;;;;;;;9.92;66.14;95042.13;4919464;29;20147;-78
2024/03/03 08:30:55;;;;;;;18.67;13.18;;;;;;;10.19;65.13;95033.03;4919868;29;20135;-79
2024/03/03 08:33:22;;;;;;;17.25;13.88;;;;;;;10.52;64.45;95026.66;4920511;29;20056;-79
2024/03/03 08:35:50;;;;;;;18.25;13.00;;;;;;;10.90;64.08;95036.78;4919178;29;20056;-79
2024/03/03 08:38:17;;;;;;;17.38;12.98;;;;;;;11.26;62.47;95031.66;4918960;29;20060;-79
2024/03/03 08:40:45;;;;;;;20.65;14.88;;;;;;;11.41;60.99;95034.63;4918988;29;20117;-79
2024/03/03 08:43:14;;;;;;;18.08;13.93;;;;;;;11.51;60.65;95024.44;4919056;29;20087;-79
2024/03/03 08:45:42;;;;;;;18.08;12.75;;;;;;;11.76;60.22;95018.19;4918891;29;20052;-79
2024/03/03 08:48:09;;;;;;;19.52;13.38;;;;;;;11.94;59.66;95023.34;4920233;29;20142;-79
2024/03/03 08:50:37;;;;;;;17.75;13.65;;;;;;;12.20;58.94;95025.69;4918731;29;20505;-80
2024/03/03 08:53:05;;;;;;;16.98;13.45;;;;;;;12.48;58.58;95027.56;4918511;29;20087;-79
2024/03/03 08:55:33;;;;;;;20.05;13.95;;;;;;;12.77;58.04;95026.56;4918373;29;20063;-79
2024/03/03 08:58:00;;;;;;;16.92;12.88;;;;;;;13.02;57.12;95019.38;4918387;29;20526;-79
2024/03/03 09:00:29;;;;;;;16.05;11.85;;;;;;;13.17;56.07;95025.66;4918310;29;20433;-79
2024/03/03 09:02:57;;;;;;;17.35;12.82;;;;;;;13.29;56.04;95027.44;4918384;29;20111;-80
2024/03/03 09:05:26;;;;;;;17.08;13.52;;;;;;;13.38;55.70;95021.59;4917944;29;20052;-79
2024/03/03 09:07:54;;;;;;;17.63;13.18;;;;;;;13.45;55.70;95026.69;4918631;29;20056;-79
2024/03/03 09:10:22;;;;;;;17.23;12.88;;;;;;;13.51;54.86;95023.13;4918173;29;20481;-80
2024/03/03 09:12:49;;;;;;;15.07;12.52;;;;;;;13.48;54.97;95034.06;4917712;29;20055;-79
2024/03/03 09:15:17;;;;;;;17.95;13.45;;;;;;;13.58;54.48;95028.19;4917652;29;20064;-79
2024/03/03 09:17:46;;;;;;;16.90;13.18;;;;;;;13.76;53.93;95027.13;4918001;29;20083;-80
2024/03/03 09:20:14;;;;;;;16.70;12.55;;;;;;;14.06;54.36;95016.28;4918054;29;20044;-80
2024/03/03 09:22:41;;;;;;;16.42;11.73;;;;;;;14.38;53.47;95026.91;4917937;29;20084;-80
2024/03/03 09:25:09;;;;;;;16.83;13.00;;;;;;;14.64;52.37;95022.00;4919665;29;20145;-80
2024/03/03 09:27:37;;;;;;;14.80;12.02;;;;;;;14.84;52.03;95022.19;4936751;29;20062;-80
2024/03/03 09:30:06;;;;;;;17.25;12.75;;;;;;;15.06;51.13;95024.00;4936236;29;20056;-81
2024/03/03 09:32:36;;;;;;;17.42;13.15;;;;;;;15.14;50.34;95030.66;4934985;29;20556;-81
2024/03/03 09:35:07;;;;;;;19.15;13.68;;;;;;;15.14;49.67;95031.44;4935679;29;20075;-81
2024/03/03 09:37:34;;;;;;;17.67;13.13;;;;;;;15.16;50.36;95018.06;4936453;29;20059;-81
2024/03/03 09:40:03;;;;;;;20.20;15.02;;;;;;;15.10;50.08;95022.47;4919696;29;20100;-81
2024/03/03 09:42:30;;;;;;;17.58;13.38;;;;;;;15.12;49.63;95023.00;4917929;29;20500;-81
2024/03/03 09:45:03;;;;;;;17.38;13.38;;;;;;;15.12;49.92;95028.25;4917268;29;20080;-81
2024/03/03 09:47:33;;;;;;;;;;;;;;;15.28;49.96;95020.50;4919375;29;20060;-81
2024/03/03 09:50:03;;;;;;;17.17;12.15;;;;;;;15.51;50.28;95017.56;4918336;29;19930;-81
2024/03/03 09:52:32;;;;;;;17.08;12.15;;;;;;;15.85;49.39;95017.28;4917706;29;20044;-80
2024/03/03 09:55:02;;;;;;;17.52;12.93;;;;;;;16.09;48.30;95014.28;4917713;29;20060;-81
2024/03/03 09:57:33;;;;;;;15.85;12.45;;;;;;;16.33;47.51;95012.03;4917787;29;20048;-81
2024/03/03 10:00:02;;;;;;;15.95;11.57;;;;;;;16.56;46.92;95005.53;4918311;29;20119;-81
2024/03/03 10:02:32;;;;;;;14.00;11.38;;;;;;;16.79;45.59;95013.00;4917517;29;20048;-81
2024/03/03 10:05:01;;;;;;;15.32;11.73;;;;;;;17.02;45.07;95006.47;4918159;29;20128;-81
2024/03/03 10:07:39;;;;;;;14.52;10.88;;;;;;;17.20;43.97;95012.28;4918195;29;20173;-81
2024/03/03 10:10:08;;;;;;;14.40;11.23;;;;;;;17.37;44.67;95002.28;4918079;29;20052;-81
2024/03/03 10:12:37;;;;;;;13.20;10.25;;;;;;;17.55;43.48;95003.59;4917120;29;20576;-81
2024/03/03 10:15:08;;;;;;;15.05;11.25;;;;;;;17.71;43.67;95001.75;4917484;29;20103;-81
2024/03/03 10:17:36;;;;;;;14.18;11.02;;;;;;;17.99;43.31;95003.03;4917199;29;20064;-81
2024/03/03 10:20:07;;;;;;;14.68;10.95;;;;;;;18.30;42.47;95010.88;4917300;29;20055;-81
2024/03/03 10:22:36;;;;;;;13.95;11.18;;;;;;;18.64;41.37;94994.38;4917321;29;20048;-80
2024/03/03 10:25:12;;;;;;;13.35;9.75;;;;;;;19.04;40.79;95001.31;4917280;29;20056;-80
2024/03/03 10:27:43;;;;;;;11.75;9.43;;;;;;;19.27;39.64;95002.47;4917419;29;20058;-80
2024/03/03 10:30:14;;;;;;;10.10;8.20;;;;;;;19.37;40.00;94991.03;4917358;29;20048;-80
2024/03/03 10:32:42;;;;;;;9.77;8.18;;;;;;;19.50;39.88;94992.25;4916829;29;20600;-79
2024/03/03 10:35:11;;;;;;;11.35;9.15;;;;;;;19.65;38.59;94994.75;4916815;29;20143;-79
2024/03/03 10:37:51;;;;;;;10.60;8.60;;;;;;;19.81;37.48;94992.81;4916497;29;20561;-80
2024/03/03 10:40:20;;;;;;;11.35;9.15;;;;;;;19.98;37.50;94986.28;4916934;29;20063;-79
2024/03/03 10:42:48;;;;;;;9.52;8.35;;;;;;;20.29;38.39;94986.75;4916605;29;20050;-79
2024/03/03 10:45:15;;;;;;;9.82;8.20;;;;;;;20.71;37.08;94987.88;4916507;29;20528;-81
2024/03/03 10:47:43;;;;;;;10.73;8.35;;;;;;;21.09;35.84;94993.94;4917404;29;20087;-81
2024/03/03 10:50:16;;;;;;;11.27;9.25;;;;;;;21.31;34.99;94989.91;4919696;29;20143;-80
2024/03/03 10:52:44;;;;;;;11.43;9.70;;;;;;;21.49;35.63;94991.00;4918831;29;20405;-81
2024/03/03 10:55:14;;;;;;;13.35;9.60;;;;;;;21.44;35.50;94988.44;4918894;29;20480;-81
2024/03/03 10:57:43;;;;;;;10.35;8.80;;;;;;;21.61;36.22;94988.69;4918865;29;20072;-81
2024/03/03 11:00:19;;;;;;;11.45;9.18;;;;;;;21.96;35.11;94983.84;4918825;29;20560;-81
2024/03/03 11:02:49;;;;;;;10.73;8.43;;;;;;;22.16;34.28;94975.47;4918907;29;20084;-81
2024/03/03 11:05:17;;;;;;;10.32;8.40;;;;;;;22.44;33.89;94975.50;4918537;29;20051;-80
2024/03/03 11:07:45;;;;;;;8.05;6.80;;;;;;;22.62;33.93;94969.28;4918359;29;20113;-81
2024/03/03 11:10:15;;;;;;;8.48;6.78;;;;;;;22.93;32.11;94962.50;4918087;29;20415;-81
2024/03/03 11:12:44;;;;;;;9.55;7.68;;;;;;;23.12;31.89;94970.38;4920218;29;20505;-81
2024/03/03 11:15:13;;;;;;;9.00;7.20;;;;;;;23.24;31.92;94965.28;4921111;29;20052;-80
2024/03/03 11:17:48;;;;;;;8.25;6.80;;;;;;;23.36;31.23;94965.53;4921693;29;20052;-80
2024/03/03 11:20:19;;;;;;;10.10;7.05;;;;;;;23.50;31.01;94964.69;4921530;29;20409;-80
2024/03/03 11:22:55;;;;;;;9.60;7.30;;;;;;;23.63;30.32;94963.81;4921018;29;20052;-80
2024/03/03 11:25:28;;;;;;;8.05;6.38;;;;;;;23.92;30.99;94960.72;4920598;29;20075;-80
2024/03/03 11:27:59;;;;;;;8.77;6.18;;;;;;;24.30;30.86;94962.13;4920054;29;20116;-80
2024/03/03 11:30:28;;;;;;;8.43;6.15;;;;;;;24.61;30.25;94949.50;4920604;29;20140;-80